createdAt,value
2019-01-05T00:00:35.005Z,70.02
2019-01-05T00:03:38.457Z,70.06
2019-01-05T00:06:31.342Z,69.30
2019-01-05T00:09:38.107Z,69.09
2019-01-05T00:12:32.593Z,69.00
2019-01-05T00:15:27.565Z,69.21
2019-01-05T00:18:32.010Z,69.16
2019-01-05T00:21:41.066Z,69.10
2019-01-05T00:24:32.685Z,68.89
2019-01-05T00:27:30.585Z,68.91
2019-01-05T00:30:19.915Z,68.79
2019-01-05T00:33:17.886Z,68.51
2019-01-05T00:36:44.940Z,68.34
2019-01-05T00:39:32.311Z,68.33
2019-01-05T00:42:21.406Z,68.23
2019-01-05T00:45:09.602Z,68.54
2019-01-05T00:48:06.152Z,68.32
2019-01-05T00:50:53.446Z,68.35
2019-01-05T00:54:00.297Z,67.97
2019-01-05T00:56:47.723Z,68.06
2019-01-05T00:59:43.452Z,67.69
2019-01-05T01:02:28.909Z,67.01
2019-01-05T01:05:16.717Z,67.05
2019-01-05T01:08:14.261Z,66.63
2019-01-05T01:11:02.666Z,66.48
2019-01-05T01:13:51.056Z,66.22
2019-01-05T01:16:45.671Z,65.94
2019-01-05T01:19:34.055Z,65.92
2019-01-05T01:22:21.481Z,64.46
2019-01-05T01:25:16.882Z,64.42
2019-01-05T01:28:05.659Z,63.59
2019-01-05T01:31:05.854Z,64.97
2019-01-05T01:34:01.314Z,64.95
2019-01-05T01:37:00.749Z,64.81
2019-01-05T01:39:58.768Z,65.14
2019-01-05T01:43:02.783Z,64.20
2019-01-05T01:46:07.122Z,63.83
2019-01-05T01:48:48.570Z,63.83
2019-01-05T01:51:40.221Z,64.27
2019-01-05T01:54:31.852Z,64.20
2019-01-05T01:57:25.782Z,64.29
2019-01-05T02:00:20.785Z,64.35
2019-01-05T02:03:08.832Z,64.23
2019-01-05T02:06:01.292Z,64.08
2019-01-05T02:09:00.980Z,64.41
2019-01-05T02:11:43.282Z,64.76
2019-01-05T02:14:38.088Z,65.04
2019-01-05T02:17:32.447Z,66.08
2019-01-05T02:21:07.171Z,66.68
2019-01-05T02:24:26.197Z,67.06
2019-01-05T02:28:05.304Z,67.49
2019-01-05T02:31:19.792Z,67.91
2019-01-05T02:34:46.836Z,67.87
2019-01-05T02:38:04.234Z,67.77
2019-01-05T02:41:36.016Z,67.72
2019-01-05T02:44:51.776Z,67.62
2019-01-05T02:48:43.527Z,68.55
2019-01-05T02:51:59.840Z,68.84
2019-01-05T02:55:20.973Z,69.27
2019-01-05T02:58:51.606Z,68.85
2019-01-05T03:02:42.842Z,69.62
2019-01-05T03:05:54.326Z,69.52
2019-01-05T03:09:21.422Z,70.03
2019-01-05T03:12:58.970Z,69.30
2019-01-05T03:16:13.853Z,69.15
2019-01-05T03:20:07.289Z,68.97
2019-01-05T03:23:30.530Z,68.31
2019-01-05T03:27:12.526Z,68.80
2019-01-05T03:30:32.860Z,68.51
2019-01-05T03:34:15.525Z,68.64
2019-01-05T03:37:43.653Z,68.27
2019-01-05T03:41:01.587Z,67.92
2019-01-05T03:44:51.993Z,68.49
2019-01-05T03:48:32.290Z,68.66
2019-01-05T03:51:43.899Z,68.38
2019-01-05T03:55:08.081Z,68.37
2019-01-05T03:58:48.915Z,68.30
2019-01-05T04:02:01.545Z,68.44
2019-01-05T04:05:40.405Z,68.98
2019-01-05T04:09:00.278Z,68.86
2019-01-05T04:12:33.795Z,69.01
2019-01-05T04:16:13.715Z,68.83
2019-01-05T04:20:03.247Z,68.70
2019-01-05T04:23:33.365Z,69.48
2019-01-05T04:27:23.388Z,69.10
2019-01-05T04:31:04.055Z,69.20
2019-01-05T04:34:21.513Z,68.91
2019-01-05T04:37:53.866Z,68.33
2019-01-05T04:41:34.374Z,68.57
2019-01-05T04:44:51.098Z,68.19
2019-01-05T04:48:11.148Z,67.98
2019-01-05T04:51:37.202Z,68.21
2019-01-05T04:54:58.262Z,68.00
2019-01-05T04:58:20.687Z,68.26
2019-01-05T05:01:45.328Z,67.99
2019-01-05T05:05:05.987Z,68.34
2019-01-05T05:08:38.345Z,68.92
2019-01-05T05:12:31.004Z,68.91
2019-01-05T05:16:00.149Z,68.94
2019-01-05T05:19:46.587Z,68.80
2019-01-05T05:23:32.499Z,68.48
2019-01-05T05:27:04.580Z,68.55
2019-01-05T05:30:26.411Z,68.69
2019-01-05T05:33:57.763Z,69.10
2019-01-05T05:38:08.297Z,69.07
2019-01-05T05:41:27.560Z,68.94
2019-01-05T05:44:50.698Z,69.06
2019-01-05T05:48:05.605Z,68.93
2019-01-05T05:51:37.029Z,69.26
2019-01-05T05:55:14.515Z,69.19
2019-01-05T05:58:50.955Z,69.60
2019-01-05T06:02:20.197Z,69.52
2019-01-05T06:05:59.391Z,69.66
2019-01-05T06:09:39.235Z,69.75
2019-01-05T06:13:19.494Z,69.83
2019-01-05T06:16:58.821Z,69.98
2019-01-05T06:20:30.298Z,70.18
2019-01-05T06:24:20.705Z,70.05
2019-01-05T06:28:10.726Z,70.63
2019-01-05T06:31:43.136Z,70.56
2019-01-05T06:35:22.065Z,70.51
2019-01-05T06:38:45.433Z,70.55
2019-01-05T06:42:11.489Z,70.80
2019-01-05T06:45:39.456Z,70.76
2019-01-05T06:53:02.054Z,73.03
2019-01-05T06:56:31.902Z,71.70
2019-01-05T06:59:46.519Z,71.41
2019-01-05T07:03:13.093Z,73.15
2019-01-05T07:06:58.113Z,71.91
2019-01-05T07:10:27.406Z,70.31
2019-01-05T07:14:14.925Z,69.27
2019-01-05T07:17:38.322Z,70.61
2019-01-05T07:21:09.553Z,68.95
2019-01-05T07:24:39.578Z,70.36
2019-01-05T07:28:03.566Z,68.99
2019-01-05T07:31:25.526Z,69.32
2019-01-05T07:34:55.502Z,68.95
2019-01-05T07:38:17.244Z,68.08
2019-01-05T07:41:54.201Z,67.50
2019-01-05T07:45:13.533Z,67.80
2019-01-05T07:48:44.555Z,67.99
2019-01-05T07:52:07.556Z,67.87
2019-01-05T07:56:00.133Z,67.45
2019-01-05T08:00:06.081Z,67.48
2019-01-05T08:03:32.679Z,66.97
2019-01-05T08:07:10.487Z,66.50
2019-01-05T08:10:34.015Z,65.98
2019-01-05T08:14:06.105Z,65.15
2019-01-05T08:17:57.993Z,64.44
2019-01-05T08:21:32.623Z,63.62
2019-01-05T08:25:07.094Z,63.18
2019-01-05T08:28:36.909Z,64.16
2019-01-05T08:32:12.841Z,64.87
2019-01-05T08:35:48.288Z,65.80
2019-01-05T08:39:14.894Z,65.32
2019-01-05T08:42:37.773Z,65.31
2019-01-05T08:46:15.006Z,65.38
2019-01-05T08:49:51.653Z,66.10
2019-01-05T08:53:12.859Z,65.73
2019-01-05T08:57:00.135Z,65.85
2019-01-05T09:00:29.035Z,64.95
2019-01-05T09:04:05.232Z,66.07
2019-01-05T09:07:58.514Z,66.45
2019-01-05T09:11:32.886Z,65.29
2019-01-05T09:15:24.444Z,64.68
2019-01-05T09:19:06.738Z,64.78
2019-01-05T09:22:43.940Z,64.32
2019-01-05T09:27:01.727Z,63.70
2019-01-05T09:30:29.889Z,64.19
2019-01-05T09:33:54.190Z,64.23
2019-01-05T09:37:14.027Z,64.53
2019-01-05T09:40:42.819Z,64.15
2019-01-05T09:44:38.390Z,64.56
2019-01-05T09:48:00.646Z,64.83
2019-01-05T09:51:38.221Z,63.92
2019-01-05T09:55:18.567Z,63.97
2019-01-05T09:58:30.816Z,65.16
2019-01-05T10:01:54.119Z,64.99
2019-01-05T10:05:14.481Z,64.26
2019-01-05T10:08:46.151Z,64.64
2019-01-05T10:12:20.917Z,63.66
2019-01-05T10:15:48.103Z,64.23
2019-01-05T10:19:17.331Z,62.77
2019-01-05T10:22:39.129Z,62.54
2019-01-05T10:26:12.794Z,61.92
2019-01-05T10:29:38.976Z,61.66
2019-01-05T10:33:02.570Z,61.78
2019-01-05T10:36:55.939Z,61.83
2019-01-05T10:40:23.335Z,62.09
2019-01-05T10:43:53.664Z,62.52
2019-01-05T10:47:14.328Z,62.94
2019-01-05T10:51:09.570Z,63.63
2019-01-05T10:54:41.765Z,64.53
2019-01-05T10:58:12.409Z,64.17
2019-01-05T11:01:29.599Z,63.24
2019-01-05T11:05:00.382Z,63.53
2019-01-05T11:08:27.881Z,63.71
2019-01-05T11:12:01.222Z,63.29
2019-01-05T11:15:41.133Z,63.35
2019-01-05T11:19:22.322Z,61.00
2019-01-05T11:22:48.456Z,60.64
2019-01-05T11:26:30.531Z,62.09
2019-01-05T11:29:56.663Z,62.38
2019-01-05T11:33:22.749Z,63.12
2019-01-05T11:36:52.907Z,62.37
2019-01-05T11:40:14.428Z,61.86
2019-01-05T11:43:32.117Z,61.95
2019-01-05T11:46:43.764Z,61.47
2019-01-05T11:50:27.180Z,61.07
2019-01-05T11:53:49.924Z,61.35
2019-01-05T11:57:24.063Z,62.22
2019-01-05T12:01:22.774Z,62.69
2019-01-05T12:05:03.389Z,62.73
2019-01-05T12:08:27.010Z,62.36
2019-01-05T12:12:01.479Z,61.90
2019-01-05T12:15:32.581Z,61.83
2019-01-05T12:18:59.797Z,61.52
2019-01-05T12:22:33.952Z,61.56
2019-01-05T12:26:14.368Z,61.39
2019-01-05T12:30:15.497Z,61.41
2019-01-05T12:33:48.874Z,61.30
2019-01-05T12:37:48.490Z,60.58
2019-01-05T12:41:41.627Z,59.77
2019-01-05T12:45:13.356Z,60.09
2019-01-05T12:48:43.394Z,60.07
2019-01-05T12:52:15.787Z,59.99
2019-01-05T12:56:00.970Z,60.65
2019-01-05T12:59:49.170Z,60.76
2019-01-05T13:03:26.290Z,59.62
2019-01-05T13:06:41.480Z,59.83
2019-01-05T13:10:11.941Z,59.91
2019-01-05T13:13:49.149Z,59.88
2019-01-05T13:17:17.238Z,60.21
2019-01-05T13:20:44.833Z,60.12
2019-01-05T13:24:16.960Z,59.86
2019-01-05T13:27:50.554Z,59.42
2019-01-05T13:31:42.713Z,59.61
2019-01-05T13:35:37.307Z,59.02
2019-01-05T13:39:40.006Z,60.22
2019-01-05T13:43:18.405Z,60.16
2019-01-05T13:47:08.602Z,59.73
2019-01-05T13:50:57.760Z,59.30
2019-01-05T13:53:59.177Z,59.51
2019-01-05T13:56:55.751Z,59.50
2019-01-05T13:59:59.649Z,59.69
2019-01-05T14:02:46.945Z,59.64
2019-01-05T14:05:53.755Z,59.71
2019-01-05T14:08:40.846Z,59.89
2019-01-05T14:11:32.502Z,60.19
2019-01-05T14:14:24.234Z,60.04
2019-01-05T14:17:24.592Z,60.42
2019-01-05T14:20:25.000Z,60.39
2019-01-05T14:23:19.385Z,60.54
2019-01-05T14:26:06.655Z,61.11
2019-01-05T14:28:54.057Z,61.30
2019-01-05T14:31:48.468Z,61.36
2019-01-05T14:34:35.595Z,61.46
2019-01-05T14:37:20.312Z,61.48
2019-01-05T14:40:20.932Z,61.70
2019-01-05T14:43:20.464Z,61.82
2019-01-05T14:46:08.872Z,62.19
2019-01-05T14:49:09.691Z,62.53
2019-01-05T14:52:10.379Z,62.71
2019-01-05T14:55:09.392Z,62.71
2019-01-05T14:57:57.809Z,62.99
2019-01-05T15:00:48.218Z,63.28
2019-01-05T15:03:45.617Z,63.08
2019-01-05T15:06:39.815Z,63.45
2019-01-05T15:09:34.330Z,63.88
2019-01-05T15:12:28.744Z,63.96
2019-01-05T15:15:20.131Z,64.09
2019-01-05T15:18:08.522Z,64.14
2019-01-05T15:20:55.807Z,64.38
2019-01-05T15:23:53.009Z,64.87
2019-01-05T15:26:56.850Z,64.79
2019-01-05T15:30:03.650Z,64.86
2019-01-05T15:33:00.875Z,65.46
2019-01-05T15:35:51.820Z,65.66
2019-01-05T15:38:39.056Z,65.86
2019-01-05T15:41:30.432Z,66.10
2019-01-05T15:44:30.921Z,66.19
2019-01-05T15:47:19.324Z,66.10
2019-01-05T15:50:07.688Z,66.03
2019-01-05T15:52:54.966Z,66.15
2019-01-05T15:55:39.740Z,66.37
2019-01-05T15:58:31.138Z,66.71
2019-01-05T16:01:18.083Z,66.77
2019-01-05T16:04:06.498Z,67.06
2019-01-05T16:07:13.582Z,67.12
2019-01-05T16:10:17.072Z,67.20
2019-01-05T16:13:11.176Z,67.07
2019-01-05T16:15:59.609Z,67.13
2019-01-05T16:18:51.157Z,67.15
2019-01-05T16:21:48.933Z,67.54
2019-01-05T16:24:36.213Z,67.44
2019-01-05T16:27:33.972Z,67.66
2019-01-05T16:30:21.274Z,67.65
2019-01-05T16:33:19.000Z,67.75
2019-01-05T16:36:06.903Z,68.03
2019-01-05T16:39:13.429Z,68.19
2019-01-05T16:41:51.610Z,68.43
2019-01-05T16:44:49.122Z,68.36
2019-01-05T16:47:40.300Z,68.43
2019-01-05T16:50:27.642Z,68.36
2019-01-05T16:53:16.237Z,68.42
2019-01-05T16:56:07.093Z,68.58
2019-01-05T16:59:14.088Z,68.30
2019-01-05T17:02:03.562Z,68.27
2019-01-05T17:04:50.817Z,68.49
2019-01-05T17:07:38.003Z,68.68
2019-01-05T17:10:35.844Z,68.60
2019-01-05T17:13:23.250Z,68.50
2019-01-05T17:16:11.683Z,68.44
2019-01-05T17:19:05.214Z,68.70
2019-01-05T17:22:05.661Z,68.67
2019-01-05T17:24:54.050Z,68.46
2019-01-05T17:27:51.788Z,68.34
2019-01-05T17:30:55.420Z,68.18
2019-01-05T17:33:42.835Z,68.21
2019-01-05T17:36:43.569Z,68.25
2019-01-05T17:39:30.693Z,68.22
2019-01-05T17:42:17.675Z,68.00
2019-01-05T17:45:15.985Z,67.89
2019-01-05T17:48:03.061Z,67.88
2019-01-05T17:50:51.510Z,67.60
2019-01-05T17:53:39.894Z,67.54
2019-01-05T17:56:27.556Z,67.32
2019-01-05T17:59:15.965Z,67.59
2019-01-05T18:02:16.723Z,67.64
2019-01-05T18:05:19.612Z,67.48
2019-01-05T18:08:06.646Z,67.38
2019-01-05T18:10:55.081Z,67.00
2019-01-05T18:13:42.454Z,66.99
2019-01-05T18:16:44.260Z,66.67
2019-01-05T18:19:41.766Z,66.69
2019-01-05T18:22:39.422Z,66.52
2019-01-05T18:25:40.367Z,66.56
2019-01-05T18:28:26.824Z,66.45
2019-01-05T18:31:18.473Z,66.01
2019-01-05T18:34:08.929Z,65.92
2019-01-05T18:36:59.628Z,65.99
2019-01-05T18:39:48.144Z,66.22
2019-01-05T18:43:06.686Z,66.49
2019-01-05T18:45:57.894Z,66.22
2019-01-05T18:48:44.935Z,66.37
2019-01-05T18:51:39.553Z,66.25
2019-01-05T18:54:31.026Z,66.47
2019-01-05T18:57:28.785Z,66.42
2019-01-05T19:00:20.440Z,66.19
2019-01-05T19:03:24.314Z,66.34
2019-01-05T19:06:11.477Z,66.32
2019-01-05T19:12:18.230Z,66.10
2019-01-05T19:15:22.065Z,66.30
2019-01-05T19:18:13.064Z,66.08
2019-01-05T19:21:01.662Z,66.06
2019-01-05T19:23:52.342Z,65.95
2019-01-05T19:26:40.071Z,65.70
2019-01-05T19:29:25.420Z,65.53
2019-01-05T19:32:16.941Z,65.26
2019-01-05T19:35:06.819Z,65.30
2019-01-05T19:37:54.406Z,65.12
2019-01-05T19:40:42.803Z,64.95
2019-01-05T19:43:36.439Z,64.58
2019-01-05T19:46:36.834Z,64.25
2019-01-05T19:49:37.742Z,64.56
2019-01-05T19:52:24.757Z,64.96
2019-01-05T19:55:22.628Z,65.39
2019-01-05T19:58:29.254Z,65.56
2019-01-05T20:01:26.533Z,66.18
2019-01-05T20:04:20.706Z,65.09
2019-01-05T20:07:21.608Z,64.66
2019-01-05T20:10:08.754Z,64.69
2019-01-05T20:13:00.377Z,64.41
2019-01-05T20:15:58.096Z,64.48
2019-01-05T20:18:45.369Z,64.80
2019-01-05T20:21:30.621Z,65.18
2019-01-05T20:24:17.767Z,65.39
2019-01-05T20:27:24.537Z,65.94
2019-01-05T20:30:17.821Z,66.12
2019-01-05T20:33:06.187Z,66.24
2019-01-05T20:35:49.046Z,66.17
2019-01-05T20:38:36.085Z,66.28
2019-01-05T20:41:27.357Z,66.25
2019-01-05T20:44:08.513Z,66.48
2019-01-05T20:46:59.705Z,65.72
2019-01-05T20:49:49.927Z,64.87
2019-01-05T20:52:47.206Z,65.22
2019-01-05T20:55:35.716Z,65.25
2019-01-05T20:58:23.159Z,65.40
2019-01-05T21:01:10.523Z,64.91
2019-01-05T21:04:08.315Z,64.80
2019-01-05T21:07:11.758Z,65.49
2019-01-05T21:10:18.358Z,65.35
2019-01-05T21:13:05.555Z,65.42
2019-01-05T21:15:52.480Z,65.72
2019-01-05T21:18:39.730Z,65.89
2019-01-05T21:21:26.982Z,65.48
2019-01-05T21:24:14.362Z,65.41
2019-01-05T21:27:02.785Z,65.31
2019-01-05T21:29:50.263Z,64.94
2019-01-05T21:32:38.969Z,65.33
2019-01-05T21:35:36.455Z,65.52
2019-01-05T21:38:24.867Z,65.25
2019-01-05T21:41:28.632Z,65.27
2019-01-05T21:44:30.568Z,65.02
2019-01-05T21:47:31.084Z,65.28
2019-01-05T21:50:18.231Z,66.89
2019-01-05T21:53:02.054Z,65.85
2019-01-05T21:55:48.989Z,64.86
2019-01-05T21:58:53.052Z,64.70
2019-01-05T22:01:50.633Z,64.54
2019-01-05T22:04:37.923Z,64.67
2019-01-05T22:07:23.452Z,65.24
2019-01-05T22:10:21.004Z,65.85
2019-01-05T22:13:13.560Z,66.40
2019-01-05T22:16:17.304Z,66.40
2019-01-05T22:19:13.952Z,66.54
2019-01-05T22:22:01.183Z,66.46
2019-01-05T22:24:45.813Z,66.68
2019-01-05T22:27:33.106Z,66.95
2019-01-05T22:30:24.859Z,67.56
2019-01-05T22:33:12.211Z,67.35
2019-01-05T22:36:05.542Z,67.17
2019-01-05T22:38:52.539Z,67.85
2019-01-05T22:41:53.173Z,67.67
2019-01-05T22:44:50.535Z,67.44
2019-01-05T22:47:42.040Z,67.17
2019-01-05T22:50:30.442Z,67.20
2019-01-05T22:53:17.566Z,67.69
2019-01-05T22:56:14.587Z,68.25
2019-01-05T22:59:02.989Z,68.52
2019-01-05T23:01:48.507Z,68.41
2019-01-05T23:04:30.833Z,68.76
2019-01-05T23:07:18.062Z,68.93
2019-01-05T23:10:06.434Z,69.23
2019-01-05T23:12:54.813Z,69.07
2019-01-05T23:15:38.274Z,69.15
2019-01-05T23:18:29.461Z,69.15
2019-01-05T23:21:20.744Z,69.28
2019-01-05T23:24:18.287Z,68.85
2019-01-05T23:27:05.615Z,69.17
2019-01-05T23:29:59.793Z,69.05
2019-01-05T23:32:48.330Z,69.81
2019-01-05T23:35:49.011Z,69.75
2019-01-05T23:38:52.724Z,69.69
2019-01-05T23:41:45.424Z,69.90
2019-01-05T23:44:49.073Z,70.02
2019-01-05T23:47:36.561Z,70.08
2019-01-05T23:50:25.312Z,70.36
2019-01-05T23:53:19.785Z,70.56
2019-01-05T23:56:14.019Z,70.77
2019-01-05T23:59:08.577Z,70.28
